Time;durP1;ratioP1;P1;durP2;ratioP2;P2;SDS_P1;SDS_P2;PMS_P1;PMS_P2;Temp;Humidity;BMP_temperature;BMP_pressure;BME280_temperature;BME280_humidity;BME280_pressure;Samples;Min_cycle;Max_cycle;Signal;HPM_P1;HPM_P2
2022/10/01 00:02:06;;;;;;;6.22;3.95;;;11.50;99.90;;;;;;5064585;28;20036;-80
2022/10/01 00:04:35;;;;;;;3.50;3.03;;;11.50;99.90;;;;;;5082908;28;20031;-80
2022/10/01 00:07:03;;;;;;;5.20;4.40;;;11.50;99.90;;;;;;5097619;28;20051;-80
2022/10/01 00:09:33;;;;;;;6.35;4.50;;;11.40;99.90;;;;;;5081381;28;20031;-80
2022/10/01 00:11:59;;;;;;;5.80;4.50;;;11.50;99.90;;;;;;5056072;28;20046;-80
2022/10/01 00:14:26;;;;;;;4.75;3.47;;;11.40;99.90;;;;;;5065165;28;20406;-80
2022/10/01 00:16:53;;;;;;;4.60;3.30;;;11.40;99.90;;;;;;5098619;28;20034;-80
2022/10/01 00:19:20;;;;;;;4.07;3.30;;;11.40;99.90;;;;;;5054681;28;20031;-80
2022/10/01 00:21:46;;;;;;;4.75;3.85;;;11.40;99.90;;;;;;5083331;28;20034;-80
2022/10/01 00:24:13;;;;;;;7.05;5.05;;;11.40;99.90;;;;;;5100674;28;20031;-80
2022/10/01 00:26:41;;;;;;;4.88;3.30;;;11.40;99.90;;;;;;5081578;28;20039;-80
2022/10/01 00:29:13;;;;;;;4.70;3.88;;;11.40;99.90;;;;;;5080438;28;20042;-81
2022/10/01 00:31:40;;;;;;;8.75;6.57;;;11.40;99.90;;;;;;5081990;28;20027;-80
2022/10/01 00:34:06;;;;;;;6.57;5.90;;;11.40;99.90;;;;;;5049351;28;20625;-81
2022/10/01 00:36:33;;;;;;;10.68;5.00;;;11.40;99.90;;;;;;5100271;28;20470;-80
2022/10/01 00:39:00;;;;;;;6.38;4.55;;;11.40;99.90;;;;;;5098110;28;20083;-81
2022/10/01 00:41:32;;;;;;;6.15;5.60;;;11.30;99.90;;;;;;5043385;28;20481;-81
2022/10/01 00:44:19;;;;;;;4.90;4.35;;;11.30;99.90;;;;;;5082013;28;20075;-81
2022/10/01 00:46:46;;;;;;;5.07;4.22;;;11.40;99.90;;;;;;5079047;28;20047;-81
2022/10/01 00:49:34;;;;;;;4.68;4.18;;;11.30;99.90;;;;;;5098366;28;20028;-81
2022/10/01 00:52:05;;;;;;;4.88;4.38;;;11.30;99.90;;;;;;5081996;28;20059;-81
2022/10/01 00:54:40;;;;;;;6.05;5.45;;;11.30;99.90;;;;;;5100787;28;20066;-81
2022/10/01 00:57:07;;;;;;;6.68;4.63;;;11.30;99.90;;;;;;5064315;28;20397;-82
2022/10/01 00:59:35;;;;;;;5.38;4.70;;;11.30;99.90;;;;;;5100247;28;20046;-81
2022/10/01 01:02:01;;;;;;;7.88;5.82;;;11.30;99.90;;;;;;5081763;28;20508;-80
2022/10/01 01:04:27;;;;;;;9.95;6.35;;;11.30;99.90;;;;;;5082036;28;20493;-81
2022/10/01 01:06:57;;;;;;;6.68;5.53;;;11.30;99.90;;;;;;5064692;28;20043;-80
2022/10/01 01:09:30;;;;;;;6.28;5.45;;;11.30;99.90;;;;;;5055118;28;20032;-81
2022/10/01 01:12:14;;;;;;;5.93;4.55;;;11.40;99.90;;;;;;5086018;28;20328;-80
2022/10/01 01:14:45;;;;;;;7.63;6.15;;;11.40;99.90;;;;;;5104257;28;20466;-80
2022/10/01 01:17:30;;;;;;;11.07;6.70;;;11.40;99.90;;;;;;5067825;28;20378;-80
2022/10/01 01:20:15;;;;;;;9.38;5.60;;;11.40;99.90;;;;;;5102111;28;20050;-79
2022/10/01 01:22:50;;;;;;;6.03;4.82;;;11.40;99.90;;;;;;5085983;28;20032;-80
2022/10/01 01:25:19;;;;;;;5.00;4.57;;;11.40;99.90;;;;;;5061176;28;20044;-80
2022/10/01 01:28:16;;;;;;;5.22;4.72;;;11.40;99.90;;;;;;5102153;28;20043;-79
2022/10/01 01:30:43;;;;;;;5.55;5.00;;;11.40;99.90;;;;;;5104032;28;20024;-80
2022/10/01 01:33:16;;;;;;;6.60;4.43;;;11.40;99.90;;;;;;5085952;28;20039;-79
2022/10/01 01:36:16;;;;;;;6.45;5.82;;;11.40;99.90;;;;;;5069565;28;20378;-80
2022/10/01 01:38:50;;;;;;;8.07;5.93;;;11.40;99.90;;;;;;5067969;28;20032;-80
2022/10/01 01:41:19;;;;;;;11.18;7.85;;;11.30;99.90;;;;;;5103653;28;20027;-79
2022/10/01 01:43:50;;;;;;;9.30;6.75;;;11.30;99.90;;;;;;5086015;28;20395;-78
2022/10/01 01:46:17;;;;;;;6.60;5.03;;;11.30;99.90;;;;;;5043535;28;20378;-80
2022/10/01 01:48:46;;;;;;;6.93;5.88;;;11.30;99.90;;;;;;5066324;28;20035;-79
2022/10/01 01:51:46;;;;;;;7.00;4.32;;;11.40;99.90;;;;;;5084586;28;20027;-79
2022/10/01 01:54:12;;;;;;;5.97;5.22;;;11.40;99.90;;;;;;5103863;28;20031;-82
2022/10/01 01:56:39;;;;;;;6.15;5.35;;;11.40;99.90;;;;;;5103109;28;20038;-80
2022/10/01 01:59:07;;;;;;;6.22;5.50;;;11.40;99.90;;;;;;5060248;28;20051;-79
2022/10/01 02:01:41;;;;;;;10.20;8.32;;;11.40;99.90;;;;;;5084164;28;20043;-79
2022/10/01 02:04:44;;;;;;;6.00;5.22;;;11.40;99.90;;;;;;5085156;28;20044;-80
2022/10/01 02:07:28;;;;;;;5.18;4.15;;;11.40;99.90;;;;;;5082838;28;20039;-82
2022/10/01 02:10:22;;;;;;;11.57;6.60;;;11.30;99.90;;;;;;5084062;28;20043;-80
2022/10/01 02:13:08;;;;;;;6.07;4.65;;;11.30;99.90;;;;;;5083706;28;20397;-79
2022/10/01 02:15:58;;;;;;;6.82;4.15;;;11.40;99.90;;;;;;5103935;28;20039;-82
2022/10/01 02:18:39;;;;;;;4.22;3.47;;;11.30;99.90;;;;;;5099374;28;20094;-81
2022/10/01 02:21:13;;;;;;;6.35;5.30;;;11.30;99.90;;;;;;5059605;28;20043;-81
2022/10/01 02:23:58;;;;;;;6.05;5.15;;;11.30;99.90;;;;;;5085090;28;20043;-82
2022/10/01 02:26:27;;;;;;;5.03;4.53;;;11.30;99.90;;;;;;5083280;28;20055;-82
2022/10/01 02:28:59;;;;;;;4.25;3.85;;;11.30;99.90;;;;;;5100084;28;20066;-82
2022/10/01 02:31:28;;;;;;;4.18;3.45;;;11.30;99.90;;;;;;5067051;28;20039;-82
2022/10/01 02:33:57;;;;;;;3.80;3.42;;;11.30;99.90;;;;;;5102580;28;20042;-80
2022/10/01 02:36:26;;;;;;;7.10;3.60;;;11.30;99.90;;;;;;5083533;28;20241;-82
2022/10/01 02:38:54;;;;;;;3.63;2.70;;;11.30;99.90;;;;;;5058738;28;20032;-82
2022/10/01 02:41:25;;;;;;;4.18;3.38;;;11.30;99.90;;;;;;5066667;28;20045;-82
2022/10/01 02:43:56;;;;;;;3.40;2.70;;;11.30;99.90;;;;;;5086508;28;20298;-83
2022/10/01 02:46:47;;;;;;;6.10;3.75;;;11.30;99.90;;;;;;5066234;28;20408;-82
2022/10/01 02:49:13;;;;;;;4.53;2.92;;;11.30;99.90;;;;;;5057307;28;20470;-83
2022/10/01 02:52:08;;;;;;;3.40;2.50;;;11.40;99.90;;;;;;5067777;28;20040;-83
2022/10/01 02:54:44;;;;;;;5.28;2.85;;;11.30;99.90;;;;;;5067972;28;20046;-83
2022/10/01 02:57:25;;;;;;;4.18;2.78;;;11.40;99.90;;;;;;5070621;28;20449;-83
2022/10/01 02:59:56;;;;;;;3.03;2.63;;;11.40;99.90;;;;;;5066779;28;20031;-83
2022/10/01 03:02:30;;;;;;;2.88;2.08;;;11.40;99.90;;;;;;5066629;28;20032;-82
2022/10/01 03:04:57;;;;;;;2.58;2.17;;;11.40;99.90;;;;;;5083071;28;20047;-82
2022/10/01 03:07:25;;;;;;;1.88;1.60;;;11.40;99.90;;;;;;5064998;28;20040;-82
2022/10/01 03:09:52;;;;;;;2.03;1.83;;;11.40;99.90;;;;;;5100387;28;20390;-83
2022/10/01 03:12:19;;;;;;;2.55;1.60;;;11.40;99.90;;;;;;5066344;28;20035;-82
2022/10/01 03:14:46;;;;;;;2.13;1.88;;;11.40;99.90;;;;;;5049826;28;20031;-82
2022/10/01 03:17:13;;;;;;;2.83;1.77;;;11.40;99.90;;;;;;5053513;28;20024;-82
2022/10/01 03:19:40;;;;;;;2.22;1.63;;;11.40;99.90;;;;;;5101036;28;20474;-83
2022/10/01 03:22:08;;;;;;;2.25;1.67;;;11.40;99.90;;;;;;5102270;28;20453;-82
2022/10/01 03:24:34;;;;;;;2.40;1.50;;;11.40;99.90;;;;;;5100401;28;20533;-82
2022/10/01 03:27:00;;;;;;;2.38;1.77;;;11.40;99.90;;;;;;5100036;28;20046;-82
2022/10/01 03:29:27;;;;;;;1.77;1.40;;;11.40;99.90;;;;;;5082181;28;20043;-81
2022/10/01 03:31:53;;;;;;;2.15;1.60;;;11.40;99.90;;;;;;5101347;28;20034;-82
2022/10/01 03:34:20;;;;;;;2.10;1.63;;;11.40;99.90;;;;;;5101833;28;20028;-83
2022/10/01 03:36:47;;;;;;;1.75;1.20;;;11.40;99.90;;;;;;5081462;28;20486;-82
2022/10/01 03:39:13;;;;;;;1.70;1.20;;;11.40;99.90;;;;;;5065022;28;20462;-82
2022/10/01 03:41:40;;;;;;;2.10;1.20;;;11.50;99.90;;;;;;5066370;28;20469;-82
2022/10/01 03:44:06;;;;;;;2.58;1.30;;;11.50;99.90;;;;;;5060266;28;20070;-81
2022/10/01 03:46:32;;;;;;;1.85;0.90;;;11.50;99.90;;;;;;5101043;28;20035;-82
2022/10/01 03:48:59;;;;;;;1.67;0.80;;;11.50;99.90;;;;;;5052017;28;20040;-82
2022/10/01 03:51:27;;;;;;;1.63;0.80;;;11.50;99.90;;;;;;5048901;28;20035;-83
2022/10/01 03:53:55;;;;;;;1.90;1.20;;;11.50;99.90;;;;;;5100818;28;20039;-81
2022/10/01 03:56:21;;;;;;;1.40;0.95;;;11.60;99.90;;;;;;5099365;28;20042;-83
2022/10/01 03:58:47;;;;;;;2.25;1.80;;;11.60;99.90;;;;;;5080198;28;20051;-82
2022/10/01 04:01:14;;;;;;;1.75;1.20;;;11.60;99.90;;;;;;5082452;28;20019;-81
2022/10/01 04:03:40;;;;;;;2.38;1.10;;;11.60;99.90;;;;;;5101706;28;20051;-80
2022/10/01 04:06:06;;;;;;;2.35;1.35;;;11.60;99.90;;;;;;5077356;28;20055;-80
2022/10/01 04:08:33;;;;;;;2.10;1.17;;;11.60;99.90;;;;;;5064090;28;20074;-80
2022/10/01 04:10:59;;;;;;;1.75;1.20;;;11.60;99.90;;;;;;5061112;28;20125;-79
2022/10/01 04:13:27;;;;;;;1.75;1.42;;;11.60;99.90;;;;;;5081822;28;20040;-79
2022/10/01 04:15:54;;;;;;;1.88;1.25;;;11.60;99.90;;;;;;5055567;28;20028;-79
2022/10/01 04:18:20;;;;;;;1.27;0.98;;;11.60;99.90;;;;;;5079368;28;20051;-80
2022/10/01 04:20:47;;;;;;;1.58;0.90;;;11.70;99.90;;;;;;5080638;28;20028;-80
2022/10/01 04:23:13;;;;;;;1.38;1.20;;;11.70;99.90;;;;;;5087835;28;20054;-80
2022/10/01 04:25:40;;;;;;;3.63;1.30;;;11.70;99.90;;;;;;5099349;28;20515;-79
2022/10/01 04:28:10;;;;;;;2.47;1.20;;;11.70;99.90;;;;;;5098107;28;20039;-80
2022/10/01 04:30:39;;;;;;;1.27;0.90;;;11.70;99.90;;;;;;5065753;28;20039;-80
2022/10/01 04:33:06;;;;;;;1.42;0.93;;;11.80;99.90;;;;;;5069457;28;20052;-80
2022/10/01 04:35:32;;;;;;;1.50;1.00;;;11.80;99.90;;;;;;5100257;28;20040;-80
2022/10/01 04:38:04;;;;;;;1.83;1.70;;;11.80;99.90;;;;;;5098469;28;20047;-81
2022/10/01 04:40:33;;;;;;;1.45;1.17;;;11.80;99.90;;;;;;5064760;28;20166;-81
2022/10/01 04:43:01;;;;;;;1.48;1.05;;;11.80;99.90;;;;;;5066195;28;20068;-80
2022/10/01 04:45:27;;;;;;;1.83;1.50;;;11.80;99.90;;;;;;5082510;28;20051;-81
2022/10/01 04:47:54;;;;;;;2.35;1.30;;;11.80;99.90;;;;;;5080830;28;20478;-80
2022/10/01 04:50:23;;;;;;;1.70;1.10;;;11.90;99.90;;;;;;5083865;28;20028;-81
2022/10/01 04:52:51;;;;;;;1.15;0.82;;;11.90;99.90;;;;;;5069386;28;20052;-80
2022/10/01 04:55:18;;;;;;;2.38;1.30;;;11.90;99.90;;;;;;5099291;28;20031;-82
2022/10/01 04:57:45;;;;;;;1.83;1.15;;;11.90;99.90;;;;;;5097658;28;20490;-81
2022/10/01 05:00:16;;;;;;;2.30;1.52;;;11.90;99.90;;;;;;5065745;28;20399;-81
2022/10/01 05:02:46;;;;;;;2.38;1.63;;;11.90;99.90;;;;;;5083657;28;20036;-81
2022/10/01 05:05:13;;;;;;;3.42;1.55;;;11.90;99.90;;;;;;5084270;28;20036;-81
2022/10/01 05:07:39;;;;;;;1.88;1.17;;;12.00;99.90;;;;;;5066342;28;20044;-81
2022/10/01 05:10:09;;;;;;;1.90;1.30;;;12.00;99.90;;;;;;5065558;28;20051;-81
2022/10/01 05:12:35;;;;;;;1.73;1.48;;;12.00;99.90;;;;;;5058323;28;20044;-81
2022/10/01 05:15:02;;;;;;;1.90;1.40;;;12.00;99.90;;;;;;5060687;28;20051;-81
2022/10/01 05:17:31;;;;;;;1.67;1.30;;;12.00;99.90;;;;;;5063364;28;20822;-82
2022/10/01 05:19:58;;;;;;;1.95;1.70;;;12.00;99.90;;;;;;5081791;28;20356;-81
2022/10/01 05:22:24;;;;;;;1.90;1.70;;;12.10;99.90;;;;;;5082063;28;20040;-81
2022/10/01 05:24:50;;;;;;;5.10;2.20;;;12.00;99.90;;;;;;5065252;28;20048;-81
2022/10/01 05:27:17;;;;;;;3.28;2.35;;;12.00;99.90;;;;;;5081448;28;20071;-81
2022/10/01 05:29:45;;;;;;;1.98;1.77;;;12.10;99.90;;;;;;5060601;28;20055;-81
2022/10/01 05:32:12;;;;;;;1.52;1.42;;;12.10;99.90;;;;;;5047483;28;20048;-82
2022/10/01 05:34:38;;;;;;;3.30;2.90;;;12.20;99.90;;;;;;5040682;28;20040;-82
2022/10/01 05:37:23;;;;;;;4.68;3.28;;;12.20;99.90;;;;;;5081305;28;20062;-81
2022/10/01 05:39:49;;;;;;;3.13;2.40;;;12.20;99.90;;;;;;5063351;28;20040;-81
2022/10/01 05:42:15;;;;;;;1.75;1.65;;;12.20;99.90;;;;;;5084200;28;20328;-82
2022/10/01 05:44:45;;;;;;;5.50;3.85;;;12.20;99.90;;;;;;5065460;28;20048;-81
2022/10/01 05:47:12;;;;;;;2.55;2.35;;;12.20;99.90;;;;;;5063385;28;20040;-82
2022/10/01 05:49:41;;;;;;;3.22;2.45;;;12.20;99.90;;;;;;5081681;28;20040;-79
2022/10/01 05:52:09;;;;;;;3.88;3.50;;;12.30;99.90;;;;;;5083153;28;20036;-80
2022/10/01 05:54:36;;;;;;;3.17;2.55;;;12.30;99.90;;;;;;5069569;28;20044;-79
2022/10/01 05:57:04;;;;;;;3.17;2.80;;;12.30;99.90;;;;;;5063514;28;20044;-80
2022/10/01 05:59:30;;;;;;;3.15;2.80;;;12.30;99.90;;;;;;5082377;28;20880;-80
2022/10/01 06:01:56;;;;;;;3.40;3.10;;;12.30;99.90;;;;;;5081150;28;20032;-81
2022/10/01 06:04:23;;;;;;;2.92;2.72;;;12.30;99.90;;;;;;5079962;28;20032;-79
2022/10/01 06:06:49;;;;;;;4.95;3.92;;;12.40;99.90;;;;;;5082084;28;20031;-81
2022/10/01 06:09:15;;;;;;;3.85;3.40;;;12.40;99.90;;;;;;5065256;28;20035;-82
2022/10/01 06:11:42;;;;;;;3.40;3.10;;;12.40;99.90;;;;;;5082326;28;20043;-81
2022/10/01 06:14:08;;;;;;;4.43;4.10;;;12.40;99.90;;;;;;5081700;28;20035;-80
2022/10/01 06:16:34;;;;;;;4.15;3.83;;;12.40;99.90;;;;;;5081070;28;20084;-80
2022/10/01 06:19:00;;;;;;;4.28;3.97;;;12.50;99.90;;;;;;5081204;28;20036;-79
2022/10/01 06:21:27;;;;;;;4.07;3.78;;;12.50;99.90;;;;;;5064595;28;20035;-79
2022/10/01 06:23:53;;;;;;;5.55;5.05;;;12.50;99.90;;;;;;5048076;28;20454;-79
2022/10/01 06:26:20;;;;;;;5.38;4.28;;;12.50;99.90;;;;;;5080509;28;20520;-79
2022/10/01 06:28:50;;;;;;;5.90;5.40;;;12.50;99.90;;;;;;5080498;28;20028;-80
2022/10/01 06:31:18;;;;;;;5.65;5.15;;;12.50;99.90;;;;;;5081479;28;20315;-80
2022/10/01 06:33:44;;;;;;;7.68;6.93;;;12.50;99.90;;;;;;5065088;28;21032;-81
2022/10/01 06:36:10;;;;;;;6.03;5.43;;;12.50;99.90;;;;;;5076653;28;20051;-80
2022/10/01 06:38:36;;;;;;;8.38;7.57;;;12.50;99.90;;;;;;5060261;28;20470;-81
2022/10/01 06:41:04;;;;;;;7.55;6.85;;;12.60;99.90;;;;;;5079207;28;20027;-80
2022/10/01 06:43:31;;;;;;;6.43;5.93;;;12.60;99.90;;;;;;5046584;28;20270;-80
2022/10/01 06:46:02;;;;;;;7.57;6.50;;;12.60;99.90;;;;;;5060514;28;20379;-80
2022/10/01 06:48:29;;;;;;;7.80;7.20;;;12.70;99.90;;;;;;5062002;28;20036;-79
2022/10/01 06:50:56;;;;;;;9.05;8.25;;;12.70;99.90;;;;;;5094779;28;20032;-80
2022/10/01 06:53:23;;;;;;;13.23;11.90;;;12.80;99.90;;;;;;5062160;28;20028;-81
2022/10/01 06:55:49;;;;;;;9.18;8.40;;;12.80;99.90;;;;;;5056352;28;20042;-80
2022/10/01 06:58:21;;;;;;;12.77;11.52;;;12.80;99.90;;;;;;5078547;28;20075;-80
2022/10/01 07:00:48;;;;;;;12.50;11.47;;;12.90;99.90;;;;;;5080500;28;20039;-83
2022/10/01 07:03:20;;;;;;;12.07;10.77;;;13.00;99.90;;;;;;5061603;28;20028;-80
2022/10/01 07:05:47;;;;;;;13.18;11.90;;;13.00;99.90;;;;;;5076432;28;20051;-80
2022/10/01 07:08:14;;;;;;;11.65;10.68;;;13.10;99.90;;;;;;5074986;28;20444;-81
2022/10/01 07:10:42;;;;;;;18.05;16.15;;;13.10;99.90;;;;;;5059835;28;20054;-80
2022/10/01 07:13:15;;;;;;;14.50;13.30;;;13.20;99.90;;;;;;5062684;28;20036;-80
2022/10/01 07:15:42;;;;;;;;;;;13.20;99.90;;;;;;5079957;28;20494;-80
2022/10/01 07:18:09;;;;;;;15.07;13.57;;;13.30;99.90;;;;;;5092059;27;19923;-80
2022/10/01 07:20:38;;;;;;;11.50;10.50;;;13.30;99.90;;;;;;5079155;28;20368;-78
2022/10/01 07:23:07;;;;;;;13.38;12.10;;;13.40;99.90;;;;;;5059155;28;20044;-79
2022/10/01 07:25:33;;;;;;;16.10;14.18;;;13.40;99.90;;;;;;5060885;28;20536;-78
2022/10/01 07:28:03;;;;;;;15.73;14.38;;;13.50;99.90;;;;;;5052826;28;20047;-82
2022/10/01 07:30:30;;;;;;;19.10;17.08;;;13.60;99.90;;;;;;5077479;28;20114;-79
2022/10/01 07:32:57;;;;;;;21.20;18.48;;;13.60;99.90;;;;;;5056154;28;20036;-78
2022/10/01 07:35:23;;;;;;;14.68;13.30;;;13.60;99.90;;;;;;5076905;28;20031;-79
2022/10/01 07:37:50;;;;;;;11.88;10.68;;;13.70;99.90;;;;;;5075545;28;20036;-78
2022/10/01 07:40:17;;;;;;;18.98;17.33;;;13.80;99.90;;;;;;5078611;28;20044;-78
2022/10/01 07:42:55;;;;;;;23.13;20.30;;;13.80;99.90;;;;;;5080661;28;20039;-77
2022/10/01 07:45:22;;;;;;;16.75;15.23;;;13.80;99.90;;;;;;5046985;28;20070;-79
2022/10/01 07:47:53;;;;;;;18.13;15.02;;;13.80;99.90;;;;;;5095263;28;20097;-79
2022/10/01 07:50:20;;;;;;;15.65;14.35;;;13.90;99.90;;;;;;5081051;28;20031;-79
2022/10/01 07:52:51;;;;;;;17.67;15.32;;;13.90;99.90;;;;;;5078825;28;20020;-79
2022/10/01 07:55:18;;;;;;;17.23;15.52;;;14.00;99.90;;;;;;5045906;27;20446;-79
2022/10/01 07:57:53;;;;;;;20.77;18.33;;;14.10;99.90;;;;;;5062190;28;20035;-79
2022/10/01 08:00:19;;;;;;;19.25;17.45;;;14.20;99.90;;;;;;5080372;28;20058;-79
2022/10/01 08:02:52;;;;;;;19.45;17.75;;;14.40;99.90;;;;;;5080916;28;20046;-79
2022/10/01 08:05:20;;;;;;;16.55;14.95;;;14.50;99.90;;;;;;5097605;28;20031;-79
2022/10/01 08:07:48;;;;;;;16.17;14.77;;;14.40;99.90;;;;;;5094526;28;20473;-78
2022/10/01 08:10:16;;;;;;;17.30;15.60;;;14.40;99.90;;;;;;5095689;27;20035;-80
2022/10/01 08:12:43;;;;;;;18.98;17.13;;;14.40;99.90;;;;;;5079151;28;20051;-80
2022/10/01 08:15:11;;;;;;;17.00;15.55;;;14.50;99.90;;;;;;5080648;28;20434;-80
2022/10/01 08:17:38;;;;;;;16.23;14.88;;;14.50;99.90;;;;;;5064861;28;20042;-80
2022/10/01 08:20:06;;;;;;;17.58;16.08;;;14.60;99.90;;;;;;5077941;28;20047;-80
2022/10/01 08:22:32;;;;;;;18.75;17.13;;;14.60;99.90;;;;;;5093991;28;20046;-82
2022/10/01 08:24:59;;;;;;;14.27;13.07;;;14.70;99.90;;;;;;5073770;28;20060;-81
2022/10/01 08:27:26;;;;;;;19.65;15.45;;;14.60;99.90;;;;;;5093379;28;20034;-82
2022/10/01 08:29:53;;;;;;;16.10;14.40;;;14.70;99.90;;;;;;5074484;28;20034;-85
2022/10/01 08:32:22;;;;;;;19.83;17.75;;;14.70;99.90;;;;;;5052853;28;20118;-79
2022/10/01 08:34:48;;;;;;;17.65;15.88;;;14.70;99.90;;;;;;5093678;28;20481;-85
2022/10/01 08:37:15;;;;;;;19.02;17.33;;;14.80;99.90;;;;;;5095774;28;20023;-84
2022/10/01 08:39:41;;;;;;;19.52;17.45;;;15.00;99.90;;;;;;5078738;28;20051;-81
2022/10/01 08:42:15;;;;;;;17.00;14.60;;;15.10;99.90;;;;;;5097495;28;20032;-80
2022/10/01 08:44:44;;;;;;;13.77;12.38;;;15.10;99.90;;;;;;5096591;28;20056;-83
2022/10/01 08:47:34;;;;;;;13.63;12.43;;;15.10;99.90;;;;;;5061787;28;20039;-82
2022/10/01 08:50:42;;;;;;;19.52;14.98;;;15.00;99.90;;;;;;5096116;28;20396;-83
2022/10/01 08:53:17;;;;;;;15.10;12.02;;;15.00;99.90;;;;;;5093259;28;20058;-84
2022/10/01 08:55:45;;;;;;;17.52;15.80;;;15.00;99.90;;;;;;5050583;28;20031;-82
2022/10/01 08:58:16;;;;;;;19.00;17.17;;;15.20;99.90;;;;;;5076120;28;20043;-84
2022/10/01 09:00:45;;;;;;;17.05;15.27;;;15.50;99.90;;;;;;5062302;28;20044;-84
2022/10/01 09:03:12;;;;;;;13.55;12.40;;;15.60;99.90;;;;;;5058667;28;20039;-83
2022/10/01 09:06:02;;;;;;;13.43;11.82;;;15.50;99.90;;;;;;5079789;28;20048;-84
2022/10/01 09:08:48;;;;;;;13.07;11.38;;;15.30;99.90;;;;;;5063881;28;20031;-83
2022/10/01 09:11:37;;;;;;;12.85;10.23;;;15.10;99.90;;;;;;5067469;28;20032;-83
2022/10/01 09:14:24;;;;;;;9.82;8.50;;;14.90;99.90;;;;;;5054051;28;20043;-82
2022/10/01 09:17:18;;;;;;;11.43;10.27;;;14.70;99.90;;;;;;5049014;28;20074;-85
2022/10/01 09:20:06;;;;;;;8.75;7.95;;;14.70;99.90;;;;;;5080366;28;20039;-85
2022/10/01 09:22:36;;;;;;;10.20;9.20;;;14.70;99.90;;;;;;5077479;28;20728;-79
2022/10/01 09:25:26;;;;;;;11.38;10.00;;;14.70;99.90;;;;;;5098568;28;20039;-82
2022/10/01 09:28:12;;;;;;;11.13;10.02;;;14.90;99.90;;;;;;5051383;28;20055;-83
2022/10/01 09:30:43;;;;;;;9.50;8.55;;;15.00;99.90;;;;;;5083290;28;20038;-83
2022/10/01 09:33:18;;;;;;;9.90;8.82;;;15.00;99.90;;;;;;5082465;28;20028;-86
2022/10/01 09:36:02;;;;;;;12.07;10.70;;;15.00;99.90;;;;;;5052431;28;20050;-83
2022/10/01 09:38:52;;;;;;;8.48;7.60;;;15.00;99.90;;;;;;5083044;28;20043;-84
2022/10/01 09:41:19;;;;;;;10.07;7.07;;;14.90;99.90;;;;;;5051839;28;20032;-83
2022/10/01 09:43:46;;;;;;;8.98;7.15;;;14.90;99.90;;;;;;5043202;28;20054;-83
2022/10/01 09:46:16;;;;;;;10.70;7.68;;;14.90;99.90;;;;;;5089821;28;20465;-84
2022/10/01 09:49:20;;;;;;;14.00;4.60;;;14.80;99.90;;;;;;5081649;28;20039;-85
2022/10/01 09:51:56;;;;;;;5.75;3.28;;;14.80;99.90;;;;;;5001360;28;20507;-83
2022/10/01 09:54:34;;;;;;;4.72;2.95;;;14.80;99.90;;;;;;5012130;28;20040;-79
2022/10/01 09:57:08;;;;;;;3.25;2.28;;;14.80;99.90;;;;;;5038418;28;20058;-81
2022/10/01 09:59:43;;;;;;;5.32;3.08;;;14.90;99.90;;;;;;5065701;28;20043;-79
2022/10/01 10:02:26;;;;;;;4.65;3.20;;;15.10;99.90;;;;;;5084154;28;20050;-80
2022/10/01 10:05:04;;;;;;;7.43;6.13;;;15.30;99.90;;;;;;5083965;28;20116;-79
2022/10/01 10:07:33;;;;;;;8.50;4.43;;;15.50;99.90;;;;;;5100025;28;20035;-80
2022/10/01 10:10:26;;;;;;;9.02;3.42;;;15.50;99.90;;;;;;5066434;28;20040;-79
2022/10/01 10:13:00;;;;;;;7.00;2.50;;;15.70;99.90;;;;;;5082680;28;20390;-78
2022/10/01 10:15:30;;;;;;;6.55;1.80;;;16.10;99.90;;;;;;5081795;28;20035;-80
2022/10/01 10:18:07;;;;;;;4.30;0.82;;;16.60;99.90;;;;;;5099296;28;20038;-80
2022/10/01 10:20:42;;;;;;;3.72;1.17;;;17.00;99.90;;;;;;5101917;28;20035;-80
2022/10/01 10:23:18;;;;;;;6.60;0.73;;;17.30;99.90;;;;;;5039205;28;20129;-81
2022/10/01 10:26:06;;;;;;;5.57;1.23;;;17.60;99.90;;;;;;5082914;28;20044;-80
2022/10/01 10:28:41;;;;;;;5.20;1.70;;;17.90;99.90;;;;;;5080232;28;20401;-80
2022/10/01 10:31:13;;;;;;;8.30;1.67;;;18.00;99.90;;;;;;5101020;28;20035;-80
2022/10/01 10:33:50;;;;;;;4.43;1.38;;;17.80;99.90;;;;;;5082984;28;21278;-80
2022/10/01 10:36:18;;;;;;;6.53;1.02;;;17.90;99.90;;;;;;5058515;28;20043;-80
2022/10/01 10:38:52;;;;;;;4.78;0.98;;;18.00;99.90;;;;;;5077510;28;20039;-80
2022/10/01 10:41:25;;;;;;;5.97;0.82;;;17.90;99.90;;;;;;5049661;28;20147;-80
2022/10/01 10:43:55;;;;;;;9.13;1.45;;;17.60;99.90;;;;;;5096979;28;20062;-81
2022/10/01 10:46:30;;;;;;;6.82;1.20;;;17.50;99.90;;;;;;5100969;28;20047;-81
2022/10/01 10:49:17;;;;;;;5.43;0.80;;;17.60;99.90;;;;;;5079128;28;20043;-81
2022/10/01 10:51:54;;;;;;;9.63;2.20;;;17.50;99.90;;;;;;5083128;28;20035;-80
2022/10/01 10:54:28;;;;;;;5.78;1.00;;;17.20;99.90;;;;;;5079922;28;20036;-80
2022/10/01 10:57:17;;;;;;;8.02;1.67;;;16.90;99.90;;;;;;5065785;28;20386;-80
2022/10/01 10:59:58;;;;;;;8.73;1.58;;;16.60;99.90;;;;;;5064998;28;20729;-79
2022/10/01 11:02:29;;;;;;;10.43;1.00;;;16.30;99.90;;;;;;5064803;28;20035;-80
2022/10/01 11:05:00;;;;;;;8.02;1.40;;;16.00;99.90;;;;;;5066818;28;20035;-80
2022/10/01 11:07:27;;;;;;;7.63;1.15;;;15.90;99.90;;;;;;5038529;28;20043;-80
2022/10/01 11:09:56;;;;;;;8.43;1.30;;;16.40;99.90;;;;;;5086915;28;20413;-81
2022/10/01 11:12:40;;;;;;;6.47;0.95;;;17.00;99.90;;;;;;5063922;28;20036;-80
2022/10/01 11:15:20;;;;;;;6.03;1.02;;;17.70;99.90;;;;;;5065621;28;20071;-82
2022/10/01 11:18:14;;;;;;;6.78;1.10;;;18.40;99.90;;;;;;5098665;27;20410;-81
2022/10/01 11:21:04;;;;;;;5.55;0.63;;;18.30;99.90;;;;;;5101467;28;20039;-81
2022/10/01 11:23:58;;;;;;;8.73;0.80;;;17.70;99.90;;;;;;5070414;28;20047;-80
2022/10/01 11:26:51;;;;;;;6.22;0.90;;;17.40;99.90;;;;;;5105717;28;20031;-81
2022/10/01 11:29:41;;;;;;;8.00;0.90;;;17.20;99.90;;;;;;5065319;28;20043;-81
2022/10/01 11:32:19;;;;;;;5.55;0.50;;;17.30;99.90;;;;;;5071290;28;20074;-82
2022/10/01 11:35:20;;;;;;;8.05;0.98;;;17.70;99.90;;;;;;5090248;28;20035;-81
2022/10/01 11:37:53;;;;;;;7.35;0.68;;;17.80;99.90;;;;;;5087592;28;20042;-82
2022/10/01 11:40:23;;;;;;;7.55;0.75;;;17.60;99.90;;;;;;5090170;28;20473;-82
2022/10/01 11:42:54;;;;;;;10.50;1.23;;;17.80;99.90;;;;;;5100679;28;20039;-82
2022/10/01 11:45:26;;;;;;;6.57;0.88;;;18.30;99.90;;;;;;5087434;28;20032;-81
2022/10/01 11:47:57;;;;;;;5.88;0.90;;;19.10;99.90;;;;;;5066544;28;20036;-82
2022/10/01 11:50:47;;;;;;;5.25;0.75;;;19.80;99.90;;;;;;5064268;28;20046;-82
2022/10/01 11:53:22;;;;;;;3.47;0.60;;;20.70;99.90;;;;;;5099896;28;20070;-82
2022/10/01 11:59:32;;;;;;;8.07;0.90;;;21.80;99.90;;;;;;5077261;28;20471;-80
2022/10/01 12:02:29;;;;;;;8.15;1.33;;;22.30;99.90;;;;;;5081753;28;20016;-85
2022/10/01 12:05:00;;;;;;;5.20;0.95;;;22.70;99.90;;;;;;5079231;28;20031;-85
2022/10/01 12:07:52;;;;;;;5.05;0.60;;;23.00;99.90;;;;;;5078287;28;20055;-84
2022/10/01 12:10:53;;;;;;;5.70;0.75;;;23.20;99.90;;;;;;5097486;28;20063;-84
2022/10/01 12:13:41;;;;;;;3.80;0.63;;;23.40;99.90;;;;;;5062336;28;20043;-84
2022/10/01 12:16:10;;;;;;;4.88;0.80;;;23.60;99.90;;;;;;5098056;28;20797;-83
2022/10/01 12:18:47;;;;;;;5.93;0.73;;;24.00;99.90;;;;;;5077924;28;20047;-85
2022/10/01 12:21:25;;;;;;;4.95;0.95;;;24.60;99.90;;;;;;5078941;28;20043;-83
2022/10/01 12:23:56;;;;;;;8.05;0.93;;;25.00;99.90;;;;;;5097987;28;20378;-83
2022/10/01 12:26:23;;;;;;;6.50;0.68;;;25.40;99.90;;;;;;5083293;28;20270;-83
2022/10/01 12:29:02;;;;;;;6.15;0.70;;;25.60;99.90;;;;;;5064173;28;20055;-85
2022/10/01 12:32:03;;;;;;;2.63;0.45;;;24.50;99.90;;;;;;5060923;28;20111;-87
2022/10/01 12:34:54;;;;;;;3.28;0.55;;;22.30;99.90;;;;;;5086258;28;20040;-86
2022/10/01 12:37:34;;;;;;;4.18;0.50;;;20.20;99.90;;;;;;5085016;28;20043;-88
2022/10/01 12:40:21;;;;;;;5.00;0.70;;;18.90;99.90;;;;;;5087924;28;20035;-85
2022/10/01 12:42:55;;;;;;;3.95;0.50;;;18.00;99.90;;;;;;5060997;28;20044;-85
2022/10/01 12:45:34;;;;;;;4.00;0.55;;;17.40;99.90;;;;;;5104239;28;20031;-86
2022/10/01 12:48:00;;;;;;;4.68;0.50;;;16.90;99.90;;;;;;5073614;28;20040;-86
2022/10/01 12:50:46;;;;;;;6.00;0.60;;;16.90;99.90;;;;;;5085732;28;20028;-88
2022/10/01 12:53:31;;;;;;;3.90;0.55;;;17.50;99.90;;;;;;5105675;28;20036;-87
2022/10/01 12:56:01;;;;;;;4.45;0.55;;;18.60;99.90;;;;;;5068563;28;20047;-86
2022/10/01 12:58:55;;;;;;;5.05;0.68;;;19.90;99.90;;;;;;5066031;28;20035;-84
2022/10/01 13:01:21;;;;;;;6.15;0.70;;;21.00;99.90;;;;;;5059459;28;20032;-85
2022/10/01 13:04:09;;;;;;;4.90;0.60;;;21.20;99.90;;;;;;5057403;28;20042;-85
2022/10/01 13:06:51;;;;;;;6.65;1.20;;;21.80;99.90;;;;;;5064149;28;20034;-86
2022/10/01 13:09:45;;;;;;;4.93;1.02;;;22.80;99.90;;;;;;5094432;28;20576;-89
2022/10/01 13:12:29;;;;;;;5.47;1.17;;;22.50;99.90;;;;;;5078466;28;20125;-85
2022/10/01 13:14:56;;;;;;;4.65;0.70;;;21.50;99.90;;;;;;5109408;28;20039;-83
2022/10/01 13:17:41;;;;;;;3.63;0.63;;;20.70;99.90;;;;;;5068375;28;20039;-82